Time;durP1;ratioP1;P1;durP2;ratioP2;P2;SDS_P1;SDS_P2;PMS_P1;PMS_P2;Temp;Humidity;BMP_temperature;BMP_pressure;BME280_temperature;BME280_humidity;BME280_pressure;Samples;Min_cycle;Max_cycle;Signal;HPM_P1;HPM_P2
2024/02/02 00:04:57;;;;;;;11.98;4.03;;;;;;;7.33;63.01;101691.69;10389699;28;20143;-66
2024/02/02 00:09:59;;;;;;;9.60;4.18;;;;;;;7.28;63.09;101699.00;10374402;28;20210;-64
2024/02/02 00:15:03;;;;;;;9.75;3.60;;;;;;;7.23;62.50;101696.53;10384307;28;20074;-64
2024/02/02 00:20:08;;;;;;;9.32;3.55;;;;;;;7.13;63.52;101703.19;10385998;28;20056;-67
2024/02/02 00:25:10;;;;;;;10.40;3.72;;;;;;;7.11;63.88;101696.22;10376510;28;20053;-65
2024/02/02 00:30:12;;;;;;;8.52;3.72;;;;;;;7.07;63.43;101682.22;10399529;28;20594;-65
2024/02/02 00:35:14;;;;;;;13.20;3.78;;;;;;;7.06;64.68;101676.06;10394945;28;20042;-65
2024/02/02 00:40:15;;;;;;;10.55;4.43;;;;;;;7.07;63.89;101677.81;10397891;28;20087;-65
2024/02/02 00:45:21;;;;;;;14.23;3.88;;;;;;;7.07;63.99;101680.47;10394238;28;20522;-66
2024/02/02 00:50:23;;;;;;;11.48;3.75;;;;;;;7.04;64.08;101680.59;10367757;28;20595;-66
2024/02/02 00:55:24;;;;;;;8.65;3.50;;;;;;;6.97;64.53;101676.47;10402769;28;20143;-65
2024/02/02 01:00:26;;;;;;;12.27;5.05;;;;;;;6.97;64.41;101705.59;10394630;28;20072;-67
2024/02/02 01:05:30;;;;;;;9.38;4.25;;;;;;;6.90;64.31;101698.84;10404478;28;20049;-65
2024/02/02 01:10:32;;;;;;;12.00;3.95;;;;;;;6.66;64.87;101653.09;10392583;28;20078;-66
2024/02/02 01:15:34;;;;;;;8.55;3.40;;;;;;;6.94;65.37;101692.50;10399127;28;20094;-65
2024/02/02 01:20:38;;;;;;;11.07;4.00;;;;;;;6.90;64.93;101680.31;10401592;28;20045;-65
2024/02/02 01:25:40;;;;;;;10.75;3.70;;;;;;;6.93;64.93;101672.22;10386716;28;20040;-66
2024/02/02 01:30:42;;;;;;;7.65;3.55;;;;;;;6.89;64.54;101687.41;10395851;28;20076;-65
2024/02/02 01:35:44;;;;;;;8.63;3.40;;;;;;;6.82;65.09;101677.13;10394657;28;20049;-66
2024/02/02 01:40:45;;;;;;;14.48;5.03;;;;;;;6.81;65.13;101678.06;10406932;28;20095;-65
2024/02/02 01:45:46;;;;;;;11.55;3.92;;;;;;;6.71;65.55;101673.16;10407262;28;20494;-66
2024/02/02 01:50:48;;;;;;;9.52;3.30;;;;;;;6.39;65.61;101628.63;10407816;28;20059;-65
2024/02/02 01:55:50;;;;;;;13.23;3.85;;;;;;;6.67;66.21;101684.78;10410381;28;20623;-67
2024/02/02 02:00:53;;;;;;;9.00;3.80;;;;;;;6.73;65.91;101679.22;10408463;28;20053;-66
2024/02/02 02:05:55;;;;;;;10.02;3.42;;;;;;;6.63;65.29;101688.47;10390353;28;20041;-65
2024/02/02 02:10:57;;;;;;;9.00;4.18;;;;;;;6.57;65.46;101677.28;10395262;28;20051;-65
2024/02/02 02:15:58;;;;;;;10.35;3.72;;;;;;;6.53;66.02;101680.06;10415257;28;20063;-65
2024/02/02 02:21:25;;;;;;;7.00;3.65;;;;;;;6.48;65.78;101686.47;10399768;28;20060;-64
2024/02/02 02:26:28;;;;;;;10.52;4.47;;;;;;;6.37;66.29;101673.66;10408450;28;21140;-65
2024/02/02 02:31:29;;;;;;;11.15;4.18;;;;;;;6.40;66.65;101668.25;10405145;28;20100;-66
2024/02/02 02:36:31;;;;;;;9.55;4.03;;;;;;;6.33;67.05;101657.03;10387099;28;20132;-66
2024/02/02 02:41:35;;;;;;;10.40;4.17;;;;;;;6.30;67.31;101657.16;10411931;28;20560;-64
2024/02/02 02:46:36;;;;;;;15.13;4.60;;;;;;;6.33;67.26;101646.47;10407095;28;20191;-64
2024/02/02 02:51:38;;;;;;;8.73;4.03;;;;;;;6.42;67.11;101647.88;10403530;28;20703;-66
2024/02/02 02:56:39;;;;;;;9.63;4.60;;;;;;;6.32;66.76;101644.75;10362402;28;20456;-65
2024/02/02 03:01:44;;;;;;;8.13;4.55;;;;;;;6.26;67.04;101646.78;10403822;28;20045;-66
2024/02/02 03:06:46;;;;;;;14.98;4.45;;;;;;;6.28;67.24;101627.28;10399953;28;20108;-65
2024/02/02 03:11:48;;;;;;;16.00;4.25;;;;;;;6.08;67.07;101606.94;10397423;28;20059;-65
2024/02/02 03:16:49;;;;;;;10.88;3.97;;;;;;;6.10;67.53;101641.25;10400667;28;20067;-64
2024/02/02 03:21:51;;;;;;;8.65;4.15;;;;;;;6.04;67.27;101636.22;10402507;28;20753;-64
2024/02/02 03:26:52;;;;;;;11.07;4.60;;;;;;;5.83;68.17;101630.81;10396769;28;20096;-64
2024/02/02 03:31:53;;;;;;;7.85;3.22;;;;;;;6.05;67.80;101673.16;10389608;28;20052;-65
2024/02/02 03:36:55;;;;;;;10.88;4.05;;;;;;;6.05;67.60;101672.28;10402288;28;20752;-65
2024/02/02 03:41:56;;;;;;;11.35;3.88;;;;;;;5.95;68.07;101667.31;10390089;28;20055;-65
2024/02/02 03:46:58;;;;;;;7.00;4.20;;;;;;;6.09;67.99;101677.38;10399845;28;20135;-65
2024/02/02 03:52:07;;;;;;;11.43;4.05;;;;;;;6.04;68.00;101665.28;10397138;28;20045;-65
2024/02/02 03:57:08;;;;;;;8.48;4.05;;;;;;;6.07;68.30;101670.47;10362011;28;20041;-66
2024/02/02 04:02:11;;;;;;;13.63;4.40;;;;;;;6.05;68.32;101656.41;10391538;28;20150;-64
2024/02/02 04:07:12;;;;;;;6.30;4.43;;;;;;;5.85;68.91;101658.03;10404402;28;20638;-66
2024/02/02 04:12:14;;;;;;;7.40;4.18;;;;;;;5.97;69.10;101665.50;10398388;28;20063;-65
2024/02/02 04:17:17;;;;;;;14.75;3.53;;;;;;;5.72;69.97;101657.66;10404455;28;20056;-66
2024/02/02 04:22:19;;;;;;;7.53;4.18;;;;;;;5.77;69.81;101662.75;10374134;28;20112;-64
2024/02/02 04:27:20;;;;;;;10.38;3.42;;;;;;;5.85;70.15;101692.38;10402029;28;20128;-65
2024/02/02 04:32:22;;;;;;;9.70;3.72;;;;;;;6.00;69.27;101697.13;10382348;28;20117;-65
2024/02/02 04:37:24;;;;;;;6.45;3.83;;;;;;;6.06;69.65;101698.66;10376039;28;20501;-65
2024/02/02 04:42:25;;;;;;;8.18;3.67;;;;;;;5.99;69.59;101700.69;10396815;28;20045;-65
2024/02/02 04:47:27;;;;;;;9.30;3.90;;;;;;;5.97;69.91;101709.59;10393820;28;20048;-65
2024/02/02 04:52:30;;;;;;;5.63;3.58;;;;;;;6.05;69.73;101688.16;10360679;28;20061;-64
2024/02/02 04:57:32;;;;;;;6.35;3.70;;;;;;;5.96;70.10;101678.75;10362918;28;20063;-63
2024/02/02 05:02:33;;;;;;;8.57;3.35;;;;;;;5.95;70.03;101666.47;10395803;28;21447;-64
2024/02/02 05:07:35;;;;;;;8.82;3.65;;;;;;;5.93;70.66;101661.25;10380293;28;20100;-64
2024/02/02 05:12:39;;;;;;;8.70;4.00;;;;;;;5.87;70.83;101658.84;10379109;28;20056;-65
2024/02/02 05:17:41;;;;;;;8.63;3.50;;;;;;;5.86;70.69;101665.03;10411205;28;20084;-65
2024/02/02 05:22:45;;;;;;;9.13;4.60;;;;;;;5.79;71.64;101660.91;10405113;28;20051;-65
2024/02/02 05:27:47;;;;;;;7.00;3.78;;;;;;;5.86;71.85;101657.13;10392595;28;20067;-64
2024/02/02 05:32:48;;;;;;;6.90;4.53;;;;;;;5.93;71.44;101674.47;10394235;28;20049;-65
2024/02/02 05:37:51;;;;;;;10.32;5.40;;;;;;;5.89;71.73;101664.91;10375836;28;20061;-64
2024/02/02 05:42:53;;;;;;;8.95;4.88;;;;;;;5.85;71.79;101687.09;10401849;28;20057;-64
2024/02/02 05:47:55;;;;;;;7.68;4.03;;;;;;;6.01;72.09;101692.69;10379225;28;20056;-64
2024/02/02 05:52:56;;;;;;;11.27;4.03;;;;;;;6.00;71.55;101697.13;10392323;28;20049;-65
2024/02/02 05:57:58;;;;;;;8.02;3.78;;;;;;;6.03;72.02;101684.72;10391203;28;20187;-64
2024/02/02 06:03:00;;;;;;;10.23;4.70;;;;;;;6.06;71.97;101676.66;10397402;28;20055;-65
2024/02/02 06:08:02;;;;;;;11.90;4.63;;;;;;;6.07;71.91;101681.03;10397811;28;20047;-64
2024/02/02 06:13:06;;;;;;;9.13;4.45;;;;;;;6.03;72.93;101679.44;10399140;28;20053;-63
2024/02/02 06:18:08;;;;;;;6.10;3.97;;;;;;;6.07;72.79;101671.31;10382507;28;20087;-65
2024/02/02 06:23:11;;;;;;;8.57;4.75;;;;;;;6.00;72.77;101665.41;10402957;28;20151;-65
2024/02/02 06:28:14;;;;;;;9.63;4.85;;;;;;;6.09;73.51;101666.81;10402635;28;20063;-64
2024/02/02 06:33:16;;;;;;;7.45;4.60;;;;;;;6.14;73.06;101671.91;10404235;28;20246;-64
2024/02/02 06:38:20;;;;;;;8.82;5.15;;;;;;;6.09;72.92;101639.53;10389769;28;20176;-65
2024/02/02 06:43:22;;;;;;;9.23;5.00;;;;;;;5.98;73.45;101640.81;10386523;28;20053;-65
2024/02/02 06:48:24;;;;;;;9.02;4.93;;;;;;;6.09;73.53;101640.38;10395228;28;20136;-63
2024/02/02 06:53:29;;;;;;;13.73;5.63;;;;;;;5.95;74.21;101635.59;10396599;28;20057;-64
2024/02/02 06:58:43;;;;;;;7.25;4.20;;;;;;;5.99;74.46;101636.38;10400478;28;20537;-64
2024/02/02 07:03:47;;;;;;;7.63;3.90;;;;;;;5.91;74.91;101628.72;10386325;28;20055;-60
2024/02/02 07:08:49;;;;;;;11.93;5.88;;;;;;;5.92;74.55;101635.72;10404209;28;21251;-65
2024/02/02 07:13:53;;;;;;;8.55;4.35;;;;;;;5.81;75.29;101625.56;10395766;28;20056;-61
2024/02/02 07:18:55;;;;;;;9.23;4.43;;;;;;;5.95;74.90;101642.69;10404248;28;20049;-63
2024/02/02 07:23:58;;;;;;;7.60;4.50;;;;;;;5.96;75.09;101639.97;10387351;28;20057;-60
2024/02/02 07:29:05;;;;;;;7.60;4.95;;;;;;;5.78;75.49;101638.03;10381171;28;20133;-62
2024/02/02 07:34:29;;;;;;;10.65;4.50;;;;;;;5.83;75.69;101646.66;10372595;28;20419;-61
2024/02/02 07:39:31;;;;;;;8.60;4.78;;;;;;;5.95;75.02;101637.41;10384456;28;20049;-63
2024/02/02 07:44:34;;;;;;;9.50;4.65;;;;;;;5.88;76.02;101643.84;10391548;28;20080;-62
2024/02/02 07:49:35;;;;;;;8.60;3.95;;;;;;;5.81;76.08;101627.34;10391450;28;20368;-63
2024/02/02 07:54:37;;;;;;;10.48;5.32;;;;;;;5.84;76.46;101617.53;10390650;28;20045;-61
2024/02/02 07:59:38;;;;;;;9.00;4.70;;;;;;;5.78;76.55;101606.31;10389633;28;20147;-61
2024/02/02 08:04:40;;;;;;;11.50;4.70;;;;;;;5.94;76.36;101623.31;10392611;28;20045;-62
2024/02/02 08:09:41;;;;;;;7.50;4.60;;;;;;;5.98;76.15;101619.66;10375474;28;20045;-62
2024/02/02 08:14:43;;;;;;;7.70;4.63;;;;;;;6.05;75.75;101627.34;10392744;28;20620;-62
2024/02/02 08:19:44;;;;;;;8.02;4.85;;;;;;;6.17;75.75;101618.91;10391438;28;20132;-62
2024/02/02 08:24:46;;;;;;;7.60;4.70;;;;;;;6.23;74.68;101617.81;10394262;28;20064;-63
2024/02/02 08:29:48;;;;;;;9.55;4.25;;;;;;;6.11;75.02;101603.31;10381471;28;20057;-62
2024/02/02 08:34:50;;;;;;;8.75;5.18;;;;;;;6.16;75.20;101598.72;10391561;28;20087;-61
2024/02/02 08:39:52;;;;;;;11.90;5.07;;;;;;;6.19;75.30;101595.94;10386598;28;20049;-63
2024/02/02 08:44:55;;;;;;;11.25;4.68;;;;;;;6.08;75.85;101577.00;10389658;28;20060;-62
2024/02/02 08:50:01;;;;;;;8.55;5.75;;;;;;;6.07;76.45;101567.34;10377417;28;20096;-61
2024/02/02 08:55:19;;;;;;;12.63;6.03;;;;;;;6.15;76.89;101583.75;10400406;28;20057;-61
2024/02/02 09:00:40;;;;;;;10.80;5.53;;;;;;;6.16;77.04;101575.75;10400051;28;20057;-62
2024/02/02 09:05:58;;;;;;;7.78;5.45;;;;;;;6.17;77.17;101568.69;10402333;28;20049;-62
2024/02/02 09:11:01;;;;;;;9.07;6.15;;;;;;;6.19;77.78;101574.78;10396780;28;20053;-61
2024/02/02 09:16:04;;;;;;;8.27;5.90;;;;;;;6.32;77.20;101575.13;10396129;28;20060;-62
2024/02/02 09:21:07;;;;;;;7.90;5.82;;;;;;;6.26;77.41;101565.69;10400721;28;20658;-61
2024/02/02 09:26:15;;;;;;;8.75;5.90;;;;;;;6.19;78.16;101567.69;10396454;28;20061;-61
2024/02/02 09:31:22;;;;;;;10.18;6.18;;;;;;;6.28;78.34;101576.19;10395796;28;20064;-62
2024/02/02 09:36:26;;;;;;;13.85;6.70;;;;;;;6.58;77.75;101576.69;10395339;28;20084;-61
2024/02/02 09:41:51;;;;;;;11.60;6.15;;;;;;;7.02;75.68;101584.47;10393519;28;20411;-62
2024/02/02 09:47:02;;;;;;;10.52;6.25;;;;;;;7.20;74.67;101579.28;10393141;28;20060;-60
2024/02/02 09:52:18;;;;;;;9.95;6.28;;;;;;;7.37;74.18;101586.44;10389975;28;20135;-62
2024/02/02 09:57:50;;;;;;;11.25;6.80;;;;;;;7.85;71.76;101568.31;10380612;28;20190;-62
2024/02/02 10:03:17;;;;;;;10.95;7.00;;;;;;;7.76;70.94;101541.34;10403567;28;20132;-62
2024/02/02 10:08:43;;;;;;;11.00;7.93;;;;;;;8.90;67.60;101573.72;10394750;28;20702;-64
2024/02/02 10:14:03;;;;;;;13.10;7.35;;;;;;;8.45;68.48;101568.94;10381230;28;20185;-60
2024/02/02 10:19:40;;;;;;;11.40;7.63;;;;;;;8.29;69.54;101574.09;10398518;28;20514;-61
2024/02/02 10:24:50;;;;;;;13.20;7.35;;;;;;;8.29;69.53;101567.97;10393588;28;20048;-61
2024/02/02 10:30:18;;;;;;;14.65;7.45;;;;;;;8.70;68.48;101558.84;10388885;28;20088;-60
2024/02/02 10:35:47;;;;;;;10.48;6.82;;;;;;;9.25;66.09;101569.22;10396626;28;20164;-61
2024/02/02 10:41:02;;;;;;;14.75;8.70;;;;;;;9.60;64.33;101557.59;10373738;28;20056;-61
2024/02/02 10:46:29;;;;;;;13.20;9.90;;;;;;;9.79;63.12;101531.69;10393797;28;20092;-61
2024/02/02 10:51:59;;;;;;;10.05;6.90;;;;;;;9.69;63.17;101518.03;10391116;28;20128;-61
2024/02/02 10:57:26;;;;;;;10.10;6.78;;;;;;;9.81;63.45;101519.16;10394534;28;20080;-61
2024/02/02 11:02:45;;;;;;;11.63;10.25;;;;;;;10.02;63.19;101518.88;10381035;28;20053;-60
2024/02/02 11:08:02;;;;;;;10.40;7.00;;;;;;;10.29;61.58;101513.72;10396698;28;20168;-59
2024/02/02 11:13:21;;;;;;;10.55;6.78;;;;;;;10.42;60.15;101506.75;10397552;28;20049;-61
2024/02/02 11:18:51;;;;;;;10.38;5.82;;;;;;;10.64;57.41;101504.59;10401091;28;20629;-62
2024/02/02 11:24:05;;;;;;;12.40;5.35;;;;;;;10.66;57.60;101486.72;10399502;28;20060;-61
2024/02/02 11:29:18;;;;;;;12.18;6.63;;;;;;;10.59;56.72;101465.78;10396498;28;20076;-60
2024/02/02 11:34:38;;;;;;;11.00;6.13;;;;;;;10.58;56.59;101479.19;10397545;28;20212;-61
2024/02/02 11:39:56;;;;;;;10.93;5.40;;;;;;;10.70;55.98;101482.91;10395982;28;20069;-62
2024/02/02 11:44:59;;;;;;;8.15;4.90;;;;;;;10.90;55.22;101474.56;10381424;28;20053;-61
2024/02/02 11:50:06;;;;;;;7.75;4.93;;;;;;;11.18;53.93;101472.81;10376001;28;20076;-61
2024/02/02 11:55:31;;;;;;;8.93;5.18;;;;;;;11.38;53.02;101489.34;10398201;28;20106;-61
2024/02/02 12:00:55;;;;;;;11.80;5.30;;;;;;;11.56;52.23;101466.84;10390049;28;20049;-63
2024/02/02 12:06:03;;;;;;;6.57;4.68;;;;;;;11.93;52.04;101471.56;10386434;28;20165;-61
2024/02/02 12:11:09;;;;;;;9.18;4.03;;;;;;;12.25;50.78;101463.19;10376147;28;20048;-63
2024/02/02 12:16:12;;;;;;;9.15;4.60;;;;;;;12.05;50.01;101453.88;10394946;28;21313;-67
2024/02/02 12:21:15;;;;;;;22.40;7.00;;;;;;;12.25;50.47;101453.38;10399540;28;20060;-63
2024/02/02 12:26:17;;;;;;;5.90;3.95;;;;;;;12.51;49.16;101442.72;10405000;28;20800;-62
2024/02/02 12:31:18;;;;;;;10.93;4.38;;;;;;;12.71;48.79;101428.78;10401240;28;20063;-60
2024/02/02 12:36:21;;;;;;;9.68;4.70;;;;;;;13.73;47.03;101432.13;10390293;28;20085;-61
2024/02/02 12:41:23;;;;;;;6.80;3.67;;;;;;;14.66;44.31;101417.03;10401215;28;20056;-61
2024/02/02 12:46:27;;;;;;;5.10;3.83;;;;;;;14.38;44.86;101405.78;10401430;28;20095;-60
2024/02/02 12:51:28;;;;;;;5.03;3.67;;;;;;;13.97;45.48;101407.16;10397890;28;20565;-62
2024/02/02 12:56:30;;;;;;;7.50;3.70;;;;;;;13.84;45.16;101390.31;10370547;28;20048;-62
2024/02/02 13:01:32;;;;;;;6.47;3.67;;;;;;;13.58;45.40;101375.28;10369069;28;20045;-62
2024/02/02 13:06:34;;;;;;;8.05;2.70;;;;;;;13.36;46.42;101385.88;10366287;28;20068;-63
2024/02/02 13:11:42;;;;;;;7.97;5.28;;;;;;;13.30;46.76;101376.47;10376579;28;20132;-62
2024/02/02 13:16:43;;;;;;;6.85;3.72;;;;;;;13.80;45.39;101365.63;10367680;28;20040;-61
2024/02/02 13:21:45;;;;;;;9.35;3.78;;;;;;;13.53;45.23;101355.22;10387244;28;20052;-61
2024/02/02 13:26:50;;;;;;;7.93;3.35;;;;;;;13.41;45.88;101352.47;10385781;28;20699;-60
2024/02/02 13:31:53;;;;;;;7.55;3.28;;;;;;;13.66;45.83;101360.47;10367181;28;20041;-63
2024/02/02 13:37:01;;;;;;;8.43;3.10;;;;;;;13.49;44.69;101351.91;10388198;28;20117;-62
2024/02/02 13:42:04;;;;;;;8.52;4.70;;;;;;;14.75;43.72;101343.94;10369686;28;20159;-61
2024/02/02 13:47:12;;;;;;;5.68;2.95;;;;;;;15.54;40.40;101346.38;10377900;28;20511;-62
2024/02/02 13:52:13;;;;;;;13.68;10.18;;;;;;;14.33;42.74;101316.91;10383619;28;20040;-63
2024/02/02 13:57:16;;;;;;;4.03;2.55;;;;;;;13.78;44.33;101322.94;10390745;28;20099;-63
2024/02/02 14:02:19;;;;;;;7.68;6.43;;;;;;;13.81;45.36;101315.63;10380360;28;20527;-65
2024/02/02 14:07:22;;;;;;;7.78;3.75;;;;;;;15.24;42.24;101333.69;10377524;28;20144;-63
2024/02/02 14:12:24;;;;;;;9.13;3.53;;;;;;;16.43;40.48;101345.09;10393732;28;20049;-66
2024/02/02 14:17:25;;;;;;;9.32;2.80;;;;;;;17.21;38.36;101321.09;10395305;28;20064;-64
2024/02/02 14:22:27;;;;;;;9.55;5.45;;;;;;;18.24;35.70;101309.75;10392939;28;21628;-61
2024/02/02 14:27:39;;;;;;;8.80;3.45;;;;;;;17.13;37.17;101312.91;10384301;28;20534;-61
2024/02/02 14:32:41;;;;;;;12.30;6.05;;;;;;;15.81;39.88;101299.41;10389397;28;20309;-62
2024/02/02 14:37:43;;;;;;;4.40;2.35;;;;;;;15.92;39.84;101293.09;10393664;28;20609;-61
2024/02/02 14:42:44;;;;;;;5.30;2.70;;;;;;;16.21;39.78;101285.19;10392932;28;20785;-61
2024/02/02 14:47:47;;;;;;;6.22;4.60;;;;;;;16.48;38.92;101281.03;10391915;28;20217;-62
2024/02/02 14:52:49;;;;;;;5.50;3.70;;;;;;;17.43;36.92;101273.34;10373244;28;20076;-61
2024/02/02 14:57:51;;;;;;;7.32;3.40;;;;;;;19.11;34.68;101286.84;10402738;28;20056;-61
2024/02/02 15:02:53;;;;;;;7.65;5.70;;;;;;;20.13;33.27;101279.16;10382087;28;20057;-59
2024/02/02 15:07:55;;;;;;;5.32;3.10;;;;;;;19.16;34.00;101291.78;10389389;28;20599;-61
2024/02/02 15:12:57;;;;;;;6.45;3.80;;;;;;;18.67;35.04;101284.00;10374394;28;20097;-63
2024/02/02 15:17:59;;;;;;;6.38;3.53;;;;;;;18.71;35.30;101272.75;10385413;28;20327;-61
2024/02/02 15:23:01;;;;;;;5.32;3.30;;;;;;;17.43;36.89;101270.66;10387152;28;20924;-61
2024/02/02 15:28:03;;;;;;;5.03;3.33;;;;;;;15.06;41.58;101255.63;10388564;28;20045;-62
2024/02/02 15:33:04;;;;;;;5.28;3.17;;;;;;;14.09;44.36;101244.72;10385184;28;20045;-62
2024/02/02 15:38:08;;;;;;;7.28;3.00;;;;;;;13.24;46.67;101243.22;10388957;28;20095;-65
2024/02/02 15:43:12;;;;;;;;;;;;;;;12.86;47.85;101244.31;10374987;28;20863;-63
2024/02/02 15:48:14;;;;;;;4.97;3.08;;;;;;;12.47;49.27;101238.25;10393364;28;20418;-62
2024/02/02 15:53:18;;;;;;;7.50;3.22;;;;;;;12.19;50.46;101240.28;10386321;28;20054;-62
2024/02/02 15:58:19;;;;;;;4.55;3.40;;;;;;;11.78;52.07;101231.50;10393648;28;20052;-63
2024/02/02 16:03:21;;;;;;;6.80;3.40;;;;;;;11.51;53.91;101223.63;10379536;28;20164;-63
2024/02/02 16:08:22;;;;;;;5.70;4.20;;;;;;;11.48;54.08;101229.16;10382874;28;20057;-62
2024/02/02 16:13:24;;;;;;;6.25;5.55;;;;;;;11.31;54.45;101212.50;10380256;28;20311;-63
2024/02/02 16:18:25;;;;;;;7.55;3.40;;;;;;;11.24;55.42;101226.38;10391456;28;20132;-63
2024/02/02 16:23:27;;;;;;;6.82;3.63;;;;;;;11.10;56.42;101219.31;10388646;28;20063;-62
2024/02/02 16:28:29;;;;;;;3.40;3.05;;;;;;;10.92;57.26;101216.91;10388075;28;20137;-65
2024/02/02 16:33:30;;;;;;;6.95;3.53;;;;;;;10.81;58.05;101222.13;10389713;28;20057;-61
2024/02/02 16:38:34;;;;;;;6.80;3.40;;;;;;;10.82;58.42;101242.44;10389336;28;20056;-62
2024/02/02 16:43:38;;;;;;;7.32;3.70;;;;;;;10.79;59.18;101237.31;10367220;28;20096;-61
2024/02/02 16:48:40;;;;;;;6.68;3.90;;;;;;;10.82;59.10;101231.78;10389889;28;20126;-62
2024/02/02 16:53:42;;;;;;;6.60;4.13;;;;;;;10.63;60.34;101232.16;10379393;28;20056;-62
2024/02/02 16:58:44;;;;;;;6.45;4.43;;;;;;;10.51;60.79;101233.81;10392610;28;20661;-63
2024/02/02 17:03:45;;;;;;;6.97;4.13;;;;;;;10.47;61.29;101231.44;10386810;28;20053;-63
2024/02/02 17:08:47;;;;;;;7.20;3.38;;;;;;;10.32;61.77;101217.28;10371182;28;20053;-61
2024/02/02 17:13:48;;;;;;;5.40;4.03;;;;;;;10.34;61.83;101220.72;10396715;28;20041;-62
2024/02/02 17:18:50;;;;;;;9.90;3.45;;;;;;;10.29;61.55;101212.16;10393318;28;20141;-60
2024/02/02 17:23:53;;;;;;;4.95;3.53;;;;;;;10.25;61.87;101228.31;10395614;28;20476;-62
2024/02/02 17:28:55;;;;;;;4.45;3.25;;;;;;;10.10;62.31;101226.63;10396612;28;20049;-60
2024/02/02 17:34:07;;;;;;;4.38;2.95;;;;;;;10.20;61.89;101253.50;10394488;28;20495;-62
2024/02/02 17:39:09;;;;;;;3.25;2.45;;;;;;;10.19;61.87;101243.81;10395112;28;20068;-64
2024/02/02 17:44:12;;;;;;;3.90;2.83;;;;;;;10.20;61.91;101257.00;10381311;28;20058;-63
2024/02/02 17:49:13;;;;;;;4.13;2.88;;;;;;;10.19;62.15;101249.13;10400840;28;20057;-60
2024/02/02 17:54:15;;;;;;;5.15;3.40;;;;;;;9.92;62.66;101223.31;10400607;28;20589;-64
2024/02/02 17:59:17;;;;;;;4.13;3.20;;;;;;;9.99;63.16;101243.25;10392599;28;20633;-63
2024/02/02 18:04:19;;;;;;;5.03;3.35;;;;;;;9.93;63.71;101242.78;10379922;28;20200;-62
2024/02/02 18:09:21;;;;;;;3.95;3.15;;;;;;;9.81;64.41;101234.59;10393983;28;20057;-60
2024/02/02 18:14:26;;;;;;;5.93;3.25;;;;;;;9.68;65.04;101225.69;10382565;28;20049;-62
2024/02/02 18:19:28;;;;;;;5.65;3.05;;;;;;;9.58;65.15;101214.75;10395706;28;20060;-61
2024/02/02 18:24:32;;;;;;;5.65;3.28;;;;;;;9.65;65.40;101223.19;10379287;28;20438;-63
2024/02/02 18:29:34;;;;;;;6.03;4.68;;;;;;;9.61;65.59;101243.81;10398948;28;20517;-61
2024/02/02 18:34:36;;;;;;;6.35;4.97;;;;;;;9.51;65.82;101243.50;10398130;28;20131;-63
2024/02/02 18:39:38;;;;;;;4.93;3.63;;;;;;;9.49;66.34;101245.41;10397657;28;20068;-62
2024/02/02 18:44:39;;;;;;;4.32;3.30;;;;;;;9.57;66.83;101246.75;10379009;28;20063;-60
2024/02/02 18:49:42;;;;;;;3.85;2.80;;;;;;;9.54;66.98;101232.69;10393949;28;20140;-62
2024/02/02 18:54:43;;;;;;;4.90;3.17;;;;;;;9.59;67.61;101244.84;10371512;28;20501;-62
2024/02/02 18:59:45;;;;;;;5.15;3.15;;;;;;;9.50;68.55;101257.75;10394718;28;20072;-63
2024/02/02 19:04:46;;;;;;;5.25;3.28;;;;;;;9.45;69.35;101233.25;10391900;28;20423;-63
2024/02/02 19:09:51;;;;;;;4.05;3.13;;;;;;;9.43;69.80;101239.59;10370320;28;20476;-63
2024/02/02 19:14:53;;;;;;;;;;;;;;;9.42;70.47;101253.84;10390103;28;20057;-63
2024/02/02 19:19:54;;;;;;;4.82;3.17;;;;;;;9.41;70.53;101247.66;10392250;28;19935;-62
2024/02/02 19:24:58;;;;;;;4.93;3.63;;;;;;;9.39;71.04;101249.56;10382868;28;20179;-63
2024/02/02 19:30:00;;;;;;;4.05;3.03;;;;;;;9.42;71.33;101254.69;10381182;28;20642;-63
2024/02/02 19:35:02;;;;;;;6.20;3.70;;;;;;;9.33;71.56;101244.63;10389903;28;20478;-62
2024/02/02 19:40:04;;;;;;;6.25;3.70;;;;;;;9.37;72.10;101262.09;10392927;28;20060;-62
2024/02/02 19:45:06;;;;;;;4.03;3.45;;;;;;;9.26;71.93;101248.56;10390971;28;20049;-63
2024/02/02 19:50:07;;;;;;;4.15;3.45;;;;;;;9.37;72.06;101252.31;10390039;28;20137;-63
2024/02/02 19:55:09;;;;;;;7.63;4.15;;;;;;;9.29;72.76;101248.38;10394519;28;20048;-61
2024/02/02 20:00:11;;;;;;;5.55;3.60;;;;;;;9.31;73.43;101257.16;10365843;28;20122;-62
2024/02/02 20:05:15;;;;;;;4.95;3.45;;;;;;;9.23;73.77;101267.34;10399944;28;20048;-63
2024/02/02 20:10:17;;;;;;;5.43;4.07;;;;;;;9.21;74.18;101262.13;10370036;28;20080;-63
2024/02/02 20:15:18;;;;;;;5.32;4.43;;;;;;;9.05;75.61;101264.81;10389748;28;24237;-63
2024/02/02 20:20:20;;;;;;;5.07;4.25;;;;;;;9.05;75.44;101286.06;10375969;28;20053;-63
2024/02/02 20:25:21;;;;;;;7.68;4.32;;;;;;;9.12;75.48;101295.41;10388119;28;20112;-62
2024/02/02 20:30:23;;;;;;;7.68;4.38;;;;;;;9.17;75.54;101289.81;10385514;28;20107;-62
2024/02/02 20:35:25;;;;;;;6.68;4.15;;;;;;;9.24;75.25;101298.31;10394080;28;20058;-62
2024/02/02 20:40:27;;;;;;;5.07;4.10;;;;;;;9.31;75.81;101311.13;10386647;28;20057;-62
2024/02/02 20:45:31;;;;;;;5.75;4.05;;;;;;;9.40;75.05;101323.03;10372793;28;20053;-62
2024/02/02 20:50:33;;;;;;;7.05;4.82;;;;;;;9.52;75.11;101322.31;10372051;28;20458;-65
2024/02/02 20:55:34;;;;;;;6.68;4.47;;;;;;;9.45;74.81;101304.16;10363306;28;20065;-61
2024/02/02 21:00:38;;;;;;;5.28;4.47;;;;;;;9.51;74.89;101325.91;10389694;28;20060;-63
2024/02/02 21:05:40;;;;;;;5.18;4.32;;;;;;;9.54;74.62;101317.75;10386910;28;20045;-62
2024/02/02 21:10:42;;;;;;;4.75;4.35;;;;;;;9.48;75.15;101326.06;10383184;28;20064;-63
2024/02/02 21:15:43;;;;;;;6.63;4.25;;;;;;;9.45;75.21;101323.59;10384193;28;20195;-62
2024/02/02 21:20:49;;;;;;;5.85;5.03;;;;;;;9.41;75.77;101327.38;10364251;28;20108;-61
2024/02/02 21:25:55;;;;;;;5.25;4.75;;;;;;;9.32;75.96;101317.28;10390608;28;20542;-62
2024/02/02 21:30:57;;;;;;;4.90;4.40;;;;;;;9.37;75.82;101332.03;10370504;28;20188;-61
2024/02/02 21:36:02;;;;;;;3.97;3.58;;;;;;;9.39;75.50;101345.22;10385151;28;20042;-62
2024/02/02 21:41:04;;;;;;;4.85;4.13;;;;;;;9.38;75.70;101348.81;10387757;28;20045;-61
2024/02/02 21:46:06;;;;;;;4.82;4.22;;;;;;;9.34;75.78;101342.84;10386032;28;20683;-61
2024/02/02 21:51:09;;;;;;;4.63;3.95;;;;;;;9.34;75.72;101344.66;10387309;28;20677;-63
2024/02/02 21:56:10;;;;;;;5.00;4.25;;;;;;;9.26;76.27;101334.44;10389420;28;20131;-61
2024/02/02 22:01:12;;;;;;;5.15;4.20;;;;;;;9.28;76.46;101347.66;10391823;28;20056;-62
2024/02/02 22:06:14;;;;;;;4.68;4.18;;;;;;;9.23;76.33;101344.41;10383471;28;20910;-62
2024/02/02 22:11:17;;;;;;;5.13;3.95;;;;;;;9.30;76.33;101357.25;10388429;28;20418;-63
2024/02/02 22:16:19;;;;;;;4.72;4.13;;;;;;;9.34;76.36;101364.09;10403670;28;20059;-62
2024/02/02 22:21:23;;;;;;;5.75;4.50;;;;;;;9.31;76.30;101350.16;10360443;28;20217;-62
2024/02/02 22:26:25;;;;;;;5.72;3.78;;;;;;;9.37;76.24;101363.06;10397573;28;20616;-62
2024/02/02 22:31:26;;;;;;;6.05;4.65;;;;;;;9.33;76.58;101359.72;10357988;28;20056;-62
2024/02/02 22:36:28;;;;;;;5.03;4.47;;;;;;;9.30;77.26;101361.72;10394050;28;20069;-62
2024/02/02 22:41:29;;;;;;;5.38;4.47;;;;;;;9.32;77.12;101362.47;10383166;28;20705;-61
2024/02/02 22:46:35;;;;;;;4.90;4.20;;;;;;;9.31;77.46;101364.28;10368925;28;20081;-59
2024/02/02 22:51:46;;;;;;;4.57;4.15;;;;;;;9.25;77.82;101359.31;10396903;28;20128;-63
2024/02/02 22:56:48;;;;;;;4.82;4.32;;;;;;;9.30;78.19;101356.38;10388636;28;20056;-62
2024/02/02 23:01:49;;;;;;;7.57;4.72;;;;;;;9.28;78.55;101342.34;10384294;28;20446;-62
2024/02/02 23:06:51;;;;;;;6.15;4.80;;;;;;;9.31;78.48;101345.69;10386797;28;20049;-60
2024/02/02 23:11:52;;;;;;;6.00;4.63;;;;;;;9.20;79.09;101335.69;10376837;28;20187;-62
2024/02/02 23:16:54;;;;;;;4.47;4.05;;;;;;;9.26;79.24;101349.53;10390463;28;20059;-60
2024/02/02 23:21:55;;;;;;;5.10;4.60;;;;;;;9.26;79.98;101354.84;10387537;28;20212;-62
2024/02/02 23:26:58;;;;;;;5.40;4.35;;;;;;;9.20;80.36;101354.28;10390310;28;20063;-61
2024/02/02 23:32:00;;;;;;;5.63;5.05;;;;;;;9.24;80.60;101351.44;10392368;28;20063;-62